createdAt,value
2019-03-10T00:01:32.634Z,70.00
2019-03-10T00:05:40.993Z,69.60
2019-03-10T00:09:49.242Z,69.50
2019-03-10T00:13:57.994Z,69.60
2019-03-10T00:18:06.264Z,69.50
2019-03-10T00:22:14.572Z,70.70
2019-03-10T00:26:23.306Z,70.00
2019-03-10T00:30:31.672Z,70.40
2019-03-10T00:34:39.868Z,70.70
2019-03-10T00:38:57.438Z,70.70
2019-03-10T00:43:22.603Z,71.00
2019-03-10T00:47:44.165Z,70.70
2019-03-10T00:52:00.907Z,70.90
2019-03-10T00:56:09.145Z,71.10
2019-03-10T01:00:17.846Z,71.30
2019-03-10T01:04:26.245Z,71.30
2019-03-10T01:08:34.428Z,71.60
2019-03-10T01:12:41.930Z,71.10
2019-03-10T01:16:50.148Z,71.20
2019-03-10T01:20:58.380Z,71.70
2019-03-10T01:25:05.987Z,70.80
2019-03-10T01:29:14.203Z,71.00
2019-03-10T01:34:36.193Z,71.10
2019-03-10T01:38:44.495Z,71.40
2019-03-10T01:42:52.709Z,71.70
2019-03-10T01:47:00.904Z,72.10
2019-03-10T01:51:08.425Z,72.10
2019-03-10T01:55:17.282Z,72.40
2019-03-10T01:59:24.779Z,72.90
2019-03-10T02:03:32.989Z,73.50
2019-03-10T02:07:40.476Z,74.00
2019-03-10T02:11:48.663Z,74.40
2019-03-10T02:15:56.170Z,74.90
2019-03-10T02:20:04.991Z,75.50
2019-03-10T02:24:23.162Z,76.10
2019-03-10T02:28:20.708Z,76.70
2019-03-10T02:32:28.216Z,76.80
2019-03-10T02:36:35.720Z,77.00
2019-03-10T02:40:43.927Z,77.90
2019-03-10T02:44:52.109Z,78.90
2019-03-10T02:48:59.599Z,79.80
2019-03-10T02:53:07.138Z,80.70
2019-03-10T02:57:15.307Z,81.60
2019-03-10T03:01:23.508Z,82.30
2019-03-10T03:05:31.804Z,82.90
2019-03-10T03:09:39.973Z,83.20
2019-03-10T03:13:48.164Z,83.60
2019-03-10T03:17:56.372Z,83.80
2019-03-10T03:22:04.551Z,84.10
2019-03-10T03:26:12.762Z,84.60
2019-03-10T03:30:20.984Z,85.20
2019-03-10T03:34:29.149Z,85.80
2019-03-10T03:38:40.335Z,86.40
2019-03-10T03:42:48.538Z,86.80
2019-03-10T03:46:56.729Z,87.40
2019-03-10T03:51:04.965Z,87.70
2019-03-10T03:55:13.155Z,87.90
2019-03-10T03:59:21.389Z,88.00
2019-03-10T04:03:29.975Z,88.10
2019-03-10T04:07:38.108Z,87.50
2019-03-10T04:11:45.605Z,88.50
2019-03-10T04:15:53.092Z,89.00
2019-03-10T04:20:00.587Z,89.70
2019-03-10T04:24:08.135Z,90.00
2019-03-10T04:28:16.380Z,90.30
2019-03-10T04:32:23.866Z,90.50
2019-03-10T04:36:31.459Z,90.60
2019-03-10T04:40:39.193Z,90.70
2019-03-10T04:44:47.373Z,90.80
2019-03-10T04:48:55.565Z,90.90
2019-03-10T04:53:03.939Z,91.30
2019-03-10T04:57:15.808Z,91.40
2019-03-10T05:01:23.315Z,91.20
2019-03-10T05:05:31.677Z,91.40
2019-03-10T05:09:40.037Z,91.60
2019-03-10T05:13:48.264Z,91.60
2019-03-10T05:17:56.520Z,91.50
2019-03-10T05:22:04.387Z,91.50
2019-03-10T05:26:13.765Z,92.00
2019-03-10T05:30:21.928Z,91.80
2019-03-10T05:34:30.108Z,91.90
2019-03-10T05:38:38.811Z,92.00
2019-03-10T05:42:46.989Z,92.10
2019-03-10T05:46:55.149Z,92.50
2019-03-10T05:51:03.274Z,93.10
2019-03-10T05:55:11.449Z,94.20
2019-03-10T05:59:19.586Z,94.30
2019-03-10T06:03:27.718Z,94.60
2019-03-10T06:07:36.066Z,94.90
2019-03-10T06:11:44.362Z,95.20
2019-03-10T06:15:51.801Z,95.10
2019-03-10T06:19:59.965Z,95.50
2019-03-10T06:24:08.092Z,95.60
2019-03-10T06:28:16.212Z,95.50
2019-03-10T06:32:24.334Z,96.20
2019-03-10T06:36:32.462Z,96.50
2019-03-10T06:40:40.769Z,96.70
2019-03-10T06:44:48.888Z,96.60
2019-03-10T06:48:56.354Z,96.90
2019-03-10T06:53:04.501Z,97.10
2019-03-10T06:57:12.615Z,97.10
2019-03-10T07:01:20.763Z,97.10
2019-03-10T07:05:28.885Z,97.10
2019-03-10T07:09:37.017Z,97.40
2019-03-10T07:13:45.229Z,97.70
2019-03-10T07:17:52.844Z,97.80
2019-03-10T07:22:01.015Z,98.10
2019-03-10T07:26:09.168Z,98.10
2019-03-10T07:30:22.723Z,98.20
2019-03-10T07:34:45.298Z,97.80
2019-03-10T07:39:13.764Z,97.80
2019-03-10T07:43:25.168Z,97.60
2019-03-10T07:47:47.136Z,97.60
2019-03-10T07:52:00.745Z,97.10
2019-03-10T07:56:15.172Z,95.70
2019-03-10T08:00:28.823Z,94.80
2019-03-10T08:04:45.233Z,94.80
2019-03-10T08:09:05.577Z,95.30
2019-03-10T08:13:21.396Z,95.40
2019-03-10T08:17:37.870Z,95.70
2019-03-10T08:21:54.149Z,95.70
2019-03-10T08:26:09.438Z,94.90
2019-03-10T08:32:29.201Z,93.00
2019-03-10T08:36:47.629Z,93.20
2019-03-10T08:41:06.025Z,93.40
2019-03-10T08:45:18.397Z,92.50
2019-03-10T08:49:30.772Z,92.20
2019-03-10T08:53:43.904Z,91.40
2019-03-10T08:58:56.762Z,90.60
2019-03-10T09:03:09.137Z,89.90
2019-03-10T09:07:25.576Z,88.70
2019-03-10T09:11:47.060Z,85.40
2019-03-10T09:16:04.374Z,85.60
2019-03-10T09:20:16.757Z,85.80
2019-03-10T09:25:36.279Z,85.20
2019-03-10T09:29:48.682Z,81.60
2019-03-10T09:34:02.081Z,81.70
2019-03-10T09:38:15.414Z,75.10
2019-03-10T09:42:34.707Z,76.10
2019-03-10T09:46:47.079Z,72.50
2019-03-10T09:51:00.656Z,74.00
2019-03-10T09:55:14.042Z,73.50
2019-03-10T09:59:32.406Z,69.60
2019-03-10T10:03:52.830Z,71.60
2019-03-10T10:08:06.454Z,71.90
2019-03-10T10:12:25.693Z,73.30
2019-03-10T10:16:39.354Z,73.40
2019-03-10T10:20:52.953Z,72.00
2019-03-10T10:25:05.334Z,72.70
2019-03-10T10:29:17.722Z,69.90
2019-03-10T10:33:30.089Z,68.00
2019-03-10T10:38:41.862Z,64.30
2019-03-10T10:42:57.218Z,65.80
2019-03-10T10:47:13.541Z,62.30
2019-03-10T10:52:31.723Z,59.50
2019-03-10T10:56:45.256Z,59.00
2019-03-10T11:00:57.637Z,58.00
2019-03-10T11:05:13.969Z,58.20
2019-03-10T11:09:26.421Z,56.80
2019-03-10T11:13:40.849Z,57.70
2019-03-10T11:17:55.327Z,60.20
2019-03-10T11:22:39.167Z,62.80
2019-03-10T11:26:51.537Z,64.10
2019-03-10T11:31:04.914Z,66.30
2019-03-10T11:35:18.414Z,66.60
2019-03-10T11:39:32.012Z,63.70
2019-03-10T11:43:45.221Z,65.40
2019-03-10T11:47:59.689Z,67.60
2019-03-10T11:52:12.148Z,67.00
2019-03-10T11:56:27.522Z,65.70
2019-03-10T12:00:40.177Z,65.10
2019-03-10T12:04:57.591Z,65.20
2019-03-10T12:09:16.217Z,63.80
2019-03-10T12:13:24.438Z,60.60
2019-03-10T12:17:32.628Z,59.00
2019-03-10T12:21:40.860Z,59.40
2019-03-10T12:25:49.129Z,57.90
2019-03-10T12:29:57.335Z,57.60
2019-03-10T12:34:05.707Z,56.30
2019-03-10T12:38:13.755Z,56.80
2019-03-10T12:42:21.987Z,56.20
2019-03-10T12:46:30.214Z,55.70
2019-03-10T12:50:37.743Z,56.70
2019-03-10T12:54:45.946Z,56.50
2019-03-10T12:58:54.182Z,56.30
2019-03-10T13:03:02.379Z,55.30
2019-03-10T13:07:10.568Z,56.10
2019-03-10T13:11:18.751Z,55.20
2019-03-10T13:15:26.935Z,54.80
2019-03-10T13:19:35.183Z,56.20
2019-03-10T13:23:43.447Z,56.20
2019-03-10T13:27:51.643Z,56.20
2019-03-10T13:32:00.519Z,55.90
2019-03-10T13:36:09.072Z,55.80
2019-03-10T13:40:17.306Z,55.40
2019-03-10T13:44:25.487Z,54.70
2019-03-10T13:48:33.690Z,55.30
2019-03-10T13:52:41.891Z,55.60
2019-03-10T13:56:50.090Z,56.90
2019-03-10T14:00:58.324Z,64.20
2019-03-10T14:05:07.367Z,68.40
2019-03-10T14:09:15.576Z,71.10
2019-03-10T14:13:23.752Z,73.70
2019-03-10T14:17:31.998Z,75.00
2019-03-10T14:21:40.174Z,76.00
2019-03-10T14:25:48.353Z,76.20
2019-03-10T14:29:56.554Z,77.40
2019-03-10T14:34:04.764Z,78.30
2019-03-10T14:38:12.983Z,78.70
2019-03-10T14:42:21.167Z,78.60
2019-03-10T14:46:29.433Z,78.00
2019-03-10T14:50:37.636Z,78.70
2019-03-10T14:54:46.000Z,79.80
2019-03-10T14:58:54.230Z,80.10
2019-03-10T15:03:02.403Z,80.50
2019-03-10T15:07:10.584Z,79.90
2019-03-10T15:11:18.884Z,80.50
2019-03-10T15:15:27.056Z,79.90
2019-03-10T15:19:35.253Z,77.70
2019-03-10T15:23:43.471Z,76.30
2019-03-10T15:27:51.663Z,77.20
2019-03-10T15:31:59.857Z,78.60
2019-03-10T15:36:08.024Z,79.30
2019-03-10T15:40:16.266Z,79.70
2019-03-10T15:44:24.441Z,81.20
2019-03-10T15:48:32.829Z,82.10
2019-03-10T15:52:41.086Z,83.20
2019-03-10T15:56:49.266Z,84.00
2019-03-10T16:00:57.483Z,83.90
2019-03-10T16:05:06.390Z,84.30
2019-03-10T16:09:14.602Z,84.30
2019-03-10T16:13:22.851Z,84.50
2019-03-10T16:17:31.033Z,84.40
2019-03-10T16:21:39.251Z,84.50
2019-03-10T16:25:47.471Z,84.70
2019-03-10T16:29:55.812Z,82.60
2019-03-10T16:34:04.001Z,81.50
2019-03-10T16:38:12.167Z,82.90
2019-03-10T16:42:20.366Z,82.40
2019-03-10T16:46:28.758Z,83.40
2019-03-10T16:50:36.953Z,83.80
2019-03-10T16:54:45.285Z,83.20
2019-03-10T16:58:53.752Z,83.10
2019-03-10T17:03:01.962Z,84.40
2019-03-10T17:07:10.119Z,83.00
2019-03-10T17:11:18.274Z,84.10
2019-03-10T17:15:26.580Z,84.50
2019-03-10T17:19:34.750Z,84.90
2019-03-10T17:23:42.346Z,82.90
2019-03-10T17:27:50.535Z,82.30
2019-03-10T17:31:58.783Z,82.10
2019-03-10T17:36:07.045Z,81.80
2019-03-10T17:40:16.390Z,81.10
2019-03-10T17:44:24.582Z,80.80
2019-03-10T17:48:33.186Z,81.20
2019-03-10T17:52:41.473Z,79.60
2019-03-10T17:56:49.694Z,80.60
2019-03-10T18:00:58.584Z,79.90
2019-03-10T18:05:07.635Z,80.50
2019-03-10T18:09:23.161Z,80.70
2019-03-10T18:13:30.844Z,80.60
2019-03-10T18:17:38.442Z,82.10
2019-03-10T18:21:46.625Z,81.40
2019-03-10T18:25:54.855Z,81.50
2019-03-10T18:30:03.194Z,80.10
2019-03-10T18:34:11.526Z,80.50
2019-03-10T18:38:19.763Z,81.10
2019-03-10T18:42:28.257Z,82.10
2019-03-10T18:46:35.749Z,82.80
2019-03-10T18:50:43.830Z,83.30
2019-03-10T18:54:51.658Z,84.70
2019-03-10T18:58:59.914Z,84.10
2019-03-10T19:03:07.528Z,84.40
2019-03-10T19:07:15.243Z,84.80
2019-03-10T19:11:23.451Z,85.90
2019-03-10T19:15:31.651Z,85.20
2019-03-10T19:19:39.825Z,83.90
2019-03-10T19:23:47.667Z,83.80
2019-03-10T19:27:55.987Z,83.60
2019-03-10T19:32:04.360Z,82.70
2019-03-10T19:36:12.526Z,81.80
2019-03-10T19:40:20.815Z,81.30
2019-03-10T19:44:28.999Z,80.70
2019-03-10T19:48:37.194Z,80.90
2019-03-10T19:52:45.372Z,81.70
2019-03-10T19:56:53.580Z,82.30
2019-03-10T20:01:01.744Z,82.80
2019-03-10T20:05:09.915Z,83.80
2019-03-10T20:09:18.137Z,84.60
2019-03-10T20:13:26.338Z,85.50
2019-03-10T20:17:34.937Z,85.90
2019-03-10T20:21:43.107Z,86.90
2019-03-10T20:25:51.315Z,87.00
2019-03-10T20:29:59.520Z,86.60
2019-03-10T20:34:07.745Z,86.90
2019-03-10T20:38:16.195Z,85.20
2019-03-10T20:46:32.651Z,84.80
2019-03-10T20:50:40.844Z,85.10
2019-03-10T20:54:49.545Z,86.10
2019-03-10T20:58:57.778Z,85.30
2019-03-10T21:03:06.079Z,86.10
2019-03-10T21:07:13.659Z,85.10
2019-03-10T21:11:21.859Z,85.90
2019-03-10T21:15:30.116Z,85.00
2019-03-10T21:19:38.345Z,84.40
2019-03-10T21:23:46.531Z,84.10
2019-03-10T21:27:54.742Z,83.80
2019-03-10T21:32:02.993Z,83.80
2019-03-10T21:36:11.192Z,83.00
2019-03-10T21:40:20.847Z,83.40
2019-03-10T21:44:29.043Z,83.20
2019-03-10T21:48:37.254Z,82.80
2019-03-10T21:52:45.455Z,82.30
2019-03-10T21:56:53.668Z,82.00
2019-03-10T22:01:01.876Z,82.00
2019-03-10T22:05:10.462Z,81.80
2019-03-10T22:09:18.666Z,81.70
2019-03-10T22:13:26.995Z,81.20
2019-03-10T22:17:35.273Z,82.40
2019-03-10T22:21:44.325Z,82.50
2019-03-10T22:25:53.320Z,82.00
2019-03-10T22:30:01.635Z,82.00
2019-03-10T22:34:09.807Z,82.10
2019-03-10T22:38:18.003Z,82.40
2019-03-10T22:42:26.242Z,82.70
2019-03-10T22:46:34.562Z,82.50
2019-03-10T22:50:43.317Z,82.60
2019-03-10T22:54:51.754Z,82.50
2019-03-10T22:58:59.255Z,83.20
2019-03-10T23:03:07.491Z,83.20
2019-03-10T23:07:15.887Z,83.30
2019-03-10T23:11:24.074Z,83.30
2019-03-10T23:15:32.301Z,83.10
2019-03-10T23:23:48.496Z,82.60
2019-03-10T23:27:56.694Z,83.40
2019-03-10T23:32:05.044Z,83.60
2019-03-10T23:36:13.244Z,83.80
2019-03-10T23:40:21.444Z,83.80
2019-03-10T23:44:29.695Z,83.00
2019-03-10T23:48:38.192Z,83.20
2019-03-10T23:52:46.893Z,82.90
2019-03-10T23:56:55.174Z,81.60
